Peshawar Weather



Peshawar's Current Weather

Temprature 13o haze

haze

Rain: 0 %

Min Temprature13o
Max Temprature13o
Humidity43
Wind Speed2.1 m/h
Sun Rise07:14:26
Sun Set17:37:49
Current Time: 27-Jan-2020 18:25:31
Lat/Lon: 34.01, 71.58




Peshawar's Geo Location



Peshawar's Weather Forecast

Time Overall Temp Min Temp Max Temp Humidity Wind Speed Rain
27-Jan-2020 (Mon)
20:00:00 overcast clouds 11.580 11.580 14.020 36 2.35 m/h 0 %
23:00:00 overcast clouds 11.180 11.180 13.010 44 0.78 m/h 0 %
28-Jan-2020 (Tue)
02:00:00 overcast clouds 11.890 11.890 13.110 41 3.36 m/h 0 %
05:00:00 overcast clouds 11.000 11.000 11.610 45 0.38 m/h 0 %
08:00:00 overcast clouds 10.710 10.710 10.710 42 1.36 m/h 0 %
11:00:00 broken clouds 14.230 14.230 14.230 26 0.92 m/h 0 %
14:00:00 clear sky 16.760 16.760 16.760 17 1.09 m/h 0 %
17:00:00 broken clouds 16.030 16.030 16.030 19 1.29 m/h 0 %
20:00:00 overcast clouds 13.330 13.330 13.330 23 0.31 m/h 0 %
23:00:00 overcast clouds 12.420 12.420 12.420 43 1.15 m/h 0 %
29-Jan-2020 (Wed)
02:00:00 overcast clouds 10.480 10.480 10.480 58 1.29 m/h 0 %
05:00:00 overcast clouds 9.730 9.730 9.730 45 0.47 m/h 0 %
08:00:00 scattered clouds 9.720 9.720 9.720 39 0.99 m/h 0 %
11:00:00 scattered clouds 13.260 13.260 13.260 24 1.02 m/h 0 %
14:00:00 broken clouds 15.990 15.990 15.990 19 0.56 m/h 0 %
17:00:00 broken clouds 15.260 15.260 15.260 28 2.9 m/h 0 %
20:00:00 few clouds 11.670 11.670 11.670 60 0.36 m/h 0 %
23:00:00 few clouds 11.100 11.100 11.100 58 0.52 m/h 0 %
30-Jan-2020 (Thu)
02:00:00 scattered clouds 10.450 10.450 10.450 43 0.56 m/h 0 %
05:00:00 few clouds 9.610 9.610 9.610 28 0.83 m/h 0 %
08:00:00 clear sky 9.790 9.790 9.790 26 0.89 m/h 0 %
11:00:00 clear sky 14.350 14.350 14.350 17 0.68 m/h 0 %
14:00:00 overcast clouds 16.550 16.550 16.550 15 0.32 m/h 0 %
17:00:00 overcast clouds 16.090 16.090 16.090 21 0.23 m/h 0 %
20:00:00 broken clouds 13.340 13.340 13.340 23 1.03 m/h 0 %
23:00:00 overcast clouds 12.530 12.530 12.530 24 0.43 m/h 0 %
31-Jan-2020 (Fri)
02:00:00 broken clouds 11.340 11.340 11.340 25 0.25 m/h 0 %
05:00:00 broken clouds 10.230 10.230 10.230 26 0.14 m/h 0 %
08:00:00 overcast clouds 10.430 10.430 10.430 29 0.16 m/h 0 %
11:00:00 overcast clouds 14.320 14.320 14.320 19 0.75 m/h 0 %
14:00:00 overcast clouds 16.590 16.590 16.590 17 0.79 m/h 0 %
17:00:00 overcast clouds 16.250 16.250 16.250 23 0.76 m/h 0 %
20:00:00 scattered clouds 13.250 13.250 13.250 26 0.15 m/h 0 %
23:00:00 few clouds 11.850 11.850 11.850 30 0.82 m/h 0 %
01-Feb-2020 (Sat)
02:00:00 clear sky 10.270 10.270 10.270 35 0.38 m/h 0 %
05:00:00 clear sky 9.540 9.540 9.540 37 0.38 m/h 0 %
08:00:00 clear sky 9.790 9.790 9.790 39 0.41 m/h 0 %
11:00:00 clear sky 14.310 14.310 14.310 28 1.03 m/h 0 %
14:00:00 clear sky 17.250 17.250 17.250 22 0.91 m/h 0 %
17:00:00 clear sky 17.070 17.070 17.070 26 0.73 m/h 0 %

Famous Cities (61)